createdAt,value
2022-08-04T00:04:15.804Z,100193.63
2022-08-04T00:09:22.419Z,100198.38
2022-08-04T00:14:25.135Z,100201.88
2022-08-04T00:19:30.957Z,100193.91
2022-08-04T00:24:33.847Z,100190.97
2022-08-04T00:29:36.790Z,100190.25
2022-08-04T00:34:40.875Z,100192.91
2022-08-04T00:39:43.779Z,100189.72
2022-08-04T00:44:54.334Z,100194.38
2022-08-04T00:50:05.995Z,100183.94
2022-08-04T00:55:22.814Z,100187.50
2022-08-04T01:00:25.825Z,100192.53
2022-08-04T01:05:37.715Z,100181.34
2022-08-04T01:10:46.451Z,100191.78
2022-08-04T01:15:59.725Z,100197.00
2022-08-04T01:21:36.908Z,100191.34
2022-08-04T01:26:56.593Z,100188.25
2022-08-04T01:32:03.633Z,100190.84
2022-08-04T01:37:10.142Z,100184.00
2022-08-04T01:42:31.427Z,100186.41
2022-08-04T01:47:37.454Z,100185.72
2022-08-04T01:52:41.015Z,100187.41
2022-08-04T01:57:44.509Z,100178.59
2022-08-04T02:02:48.691Z,100174.53
2022-08-04T02:08:03.406Z,100178.16
2022-08-04T02:13:12.184Z,100177.66
2022-08-04T02:18:23.584Z,100186.19
2022-08-04T02:23:31.859Z,100183.31
2022-08-04T02:28:37.236Z,100191.84
2022-08-04T02:33:43.315Z,100179.88
2022-08-04T02:39:00.734Z,100181.28
2022-08-04T02:44:05.426Z,100176.25
2022-08-04T02:49:10.373Z,100168.09
2022-08-04T02:54:13.418Z,100178.81
2022-08-04T02:59:16.503Z,100177.81
2022-08-04T03:04:32.611Z,100168.09
2022-08-04T03:10:08.216Z,100171.34
2022-08-04T03:15:46.528Z,100171.22
2022-08-04T03:21:12.908Z,100175.28
2022-08-04T03:26:28.176Z,100179.22
2022-08-04T03:32:06.766Z,100177.25
2022-08-04T03:37:56.871Z,100172.41
2022-08-04T03:43:58.775Z,100186.50
2022-08-04T03:48:55.135Z,100183.91
2022-08-04T03:54:11.087Z,100181.09
2022-08-04T03:59:48.676Z,100172.41
2022-08-04T04:05:05.026Z,100178.69
2022-08-04T04:10:26.558Z,100179.44
2022-08-04T04:16:05.318Z,100177.97
2022-08-04T04:21:32.277Z,100179.59
2022-08-04T04:26:55.672Z,100171.34
2022-08-04T04:32:06.003Z,100179.16
2022-08-04T04:37:22.453Z,100182.22
2022-08-04T04:42:37.506Z,100190.66
2022-08-04T04:48:09.768Z,100185.78
2022-08-04T04:53:14.937Z,100182.06
2022-08-04T04:58:18.684Z,100187.78
2022-08-04T05:03:39.097Z,100193.72
2022-08-04T05:08:54.185Z,100191.91
2022-08-04T05:14:34.755Z,100192.63
2022-08-04T05:19:25.671Z,100190.81
2022-08-04T05:24:28.583Z,100203.44
2022-08-04T05:29:41.093Z,100194.00
2022-08-04T05:34:48.910Z,100198.25
2022-08-04T05:39:55.064Z,100189.66
2022-08-04T05:44:57.824Z,100192.34
2022-08-04T05:50:03.191Z,100196.81
2022-08-04T05:55:07.039Z,100198.38
2022-08-04T06:00:38.765Z,100192.97
2022-08-04T06:05:34.903Z,100197.06
2022-08-04T06:10:38.821Z,100203.84
2022-08-04T06:15:46.097Z,100196.44
2022-08-04T06:20:51.419Z,100203.00
2022-08-04T06:25:55.721Z,100195.59
2022-08-04T06:32:26.999Z,100205.38
2022-08-04T06:36:27.144Z,100204.91
2022-08-04T06:41:29.971Z,100203.88
2022-08-04T06:46:33.057Z,100202.59
2022-08-04T06:51:46.930Z,100197.09
2022-08-04T06:56:51.891Z,100203.03
2022-08-04T07:01:54.668Z,100198.31
2022-08-04T07:06:58.952Z,100188.88
2022-08-04T07:12:01.692Z,100196.28
2022-08-04T07:17:05.724Z,100195.81
2022-08-04T07:22:18.189Z,100192.09
2022-08-04T07:27:47.651Z,100193.97
2022-08-04T07:32:51.416Z,100185.69
2022-08-04T07:37:55.495Z,100189.78
2022-08-04T07:42:58.553Z,100191.63
2022-08-04T07:48:04.857Z,100187.44
2022-08-04T07:53:55.167Z,100182.56
2022-08-04T07:58:33.905Z,100177.00
2022-08-04T08:03:36.724Z,100182.44
2022-08-04T08:08:40.951Z,100179.31
2022-08-04T08:13:45.448Z,100177.59
2022-08-04T08:18:50.149Z,100174.41
2022-08-04T08:23:54.390Z,100167.97
2022-08-04T08:28:57.136Z,100167.13
2022-08-04T08:34:00.529Z,100170.16
2022-08-04T08:39:07.915Z,100167.69
2022-08-04T08:44:37.955Z,100170.38
2022-08-04T08:50:19.443Z,100171.06
2022-08-04T08:55:31.192Z,100158.91
2022-08-04T09:00:38.369Z,100163.50
2022-08-04T09:05:51.427Z,100168.63
2022-08-04T09:10:57.754Z,100164.69
2022-08-04T09:16:11.544Z,100165.16
2022-08-04T09:21:17.779Z,100163.34
2022-08-04T09:26:24.163Z,100161.97
2022-08-04T09:31:51.607Z,100166.50
2022-08-04T09:36:57.391Z,100157.03
2022-08-04T09:42:05.543Z,100156.06
2022-08-04T09:47:15.472Z,100155.19
2022-08-04T09:52:24.754Z,100152.34
2022-08-04T09:57:39.614Z,100146.22
2022-08-04T10:02:45.323Z,100146.59
2022-08-04T10:08:16.288Z,100138.13
2022-08-04T10:13:27.105Z,100137.81
2022-08-04T10:18:46.694Z,100141.53
2022-08-04T10:24:13.640Z,100134.13
2022-08-04T10:29:19.532Z,100130.22
2022-08-04T10:34:23.359Z,100122.94
2022-08-04T10:39:43.538Z,100113.78
2022-08-04T10:44:57.481Z,100117.88
2022-08-04T10:50:01.759Z,100111.47
2022-08-04T10:55:08.038Z,100106.72
2022-08-04T11:00:16.498Z,100097.09
2022-08-04T11:05:25.121Z,100096.38
2022-08-04T11:10:29.807Z,100094.38
2022-08-04T11:15:37.298Z,100103.34
2022-08-04T11:20:46.498Z,100091.50
2022-08-04T11:25:52.448Z,100087.78
2022-08-04T11:30:59.316Z,100090.50
2022-08-04T11:36:04.088Z,100081.53
2022-08-04T11:41:11.580Z,100087.63
2022-08-04T11:46:19.716Z,100093.72
2022-08-04T11:51:22.656Z,100083.53
2022-08-04T11:56:36.558Z,100082.19
2022-08-04T12:01:52.140Z,100085.06
2022-08-04T12:07:15.089Z,100072.00
2022-08-04T12:12:22.214Z,100068.63
2022-08-04T12:17:35.309Z,100062.34
2022-08-04T12:22:55.984Z,100071.34
2022-08-04T12:28:00.496Z,100062.34
2022-08-04T12:33:06.725Z,100049.66
2022-08-04T12:38:12.349Z,100057.63
2022-08-04T12:43:23.254Z,100055.59
2022-08-04T12:48:31.106Z,100047.31
2022-08-04T12:53:35.505Z,100043.09
2022-08-04T12:58:54.790Z,100043.44
2022-08-04T13:04:02.033Z,100041.03
2022-08-04T13:09:06.488Z,100032.06
2022-08-04T13:14:26.499Z,100027.88
2022-08-04T13:19:31.683Z,100022.44
2022-08-04T13:24:57.013Z,100016.69
2022-08-04T13:30:07.660Z,100012.28
2022-08-04T13:35:13.088Z,100020.06
2022-08-04T13:40:16.207Z,100018.22
2022-08-04T13:45:20.717Z,100007.38
2022-08-04T13:50:27.417Z,99998.25
2022-08-04T13:55:31.618Z,99997.25
2022-08-04T14:00:43.746Z,99990.47
2022-08-04T14:05:59.105Z,99988.59
2022-08-04T14:11:02.965Z,99983.84
2022-08-04T14:16:14.981Z,99975.06
2022-08-04T14:21:19.220Z,99973.72
2022-08-04T14:26:30.190Z,99972.53
2022-08-04T14:31:36.248Z,99982.34
2022-08-04T14:37:17.857Z,99974.03
2022-08-04T14:42:23.941Z,99967.78
2022-08-04T14:47:39.881Z,99962.72
2022-08-04T14:52:44.047Z,99962.72
2022-08-04T14:58:35.009Z,99962.00
2022-08-04T15:03:10.408Z,99950.50
2022-08-04T15:08:14.922Z,99946.91
2022-08-04T15:13:17.735Z,99940.97
2022-08-04T15:18:20.588Z,99940.78
2022-08-04T15:23:24.623Z,99938.06
2022-08-04T15:28:45.808Z,99938.06
2022-08-04T15:33:48.615Z,99930.94
2022-08-04T15:39:12.783Z,99920.19
2022-08-04T15:44:47.936Z,99912.03
2022-08-04T15:50:03.830Z,99902.53
2022-08-04T15:55:35.524Z,99906.22
2022-08-04T16:01:17.059Z,99906.06
2022-08-04T16:06:47.321Z,99901.44
2022-08-04T16:11:51.536Z,99906.16
2022-08-04T16:16:54.429Z,99897.97
2022-08-04T16:21:58.149Z,99893.06
2022-08-04T16:27:04.659Z,99905.28
2022-08-04T16:32:11.924Z,99892.69
2022-08-04T16:37:14.954Z,99891.69
2022-08-04T16:42:32.552Z,99883.88
2022-08-04T16:48:05.542Z,99889.50
2022-08-04T16:53:14.684Z,99890.34
2022-08-04T16:58:37.198Z,99884.41
2022-08-04T17:03:57.695Z,99879.31
2022-08-04T17:09:01.443Z,99887.44
2022-08-04T17:14:06.503Z,99882.84
2022-08-04T17:19:23.933Z,99877.28
2022-08-04T17:24:29.307Z,99869.13
2022-08-04T17:29:44.301Z,99875.56
2022-08-04T17:34:49.176Z,99882.53
2022-08-04T17:39:52.154Z,99874.38
2022-08-04T17:45:39.844Z,99867.41
2022-08-04T17:50:34.630Z,99866.22
2022-08-04T17:55:39.586Z,99865.38
2022-08-04T18:00:43.948Z,99866.03
2022-08-04T18:06:03.476Z,99871.66
2022-08-04T18:11:08.112Z,99872.31
2022-08-04T18:16:22.239Z,99862.50
2022-08-04T18:21:25.839Z,99864.31
2022-08-04T18:26:28.738Z,99861.97
2022-08-04T18:31:37.463Z,99869.94
2022-08-04T18:36:41.182Z,99863.00
2022-08-04T18:42:03.697Z,99871.97
2022-08-04T18:47:22.482Z,99872.66
2022-08-04T18:52:26.516Z,99892.03
2022-08-04T19:02:56.085Z,99879.09
2022-08-04T19:08:02.001Z,99876.38
2022-08-04T19:13:24.774Z,99889.97
2022-08-04T19:18:30.999Z,99874.50
2022-08-04T19:24:28.583Z,99877.03
2022-08-04T19:28:56.969Z,99886.69
2022-08-04T19:34:05.013Z,99885.00
2022-08-04T19:39:11.852Z,99888.78
2022-08-04T19:44:14.945Z,99893.38
2022-08-04T19:50:04.623Z,99897.72
2022-08-04T19:54:42.181Z,99894.00
2022-08-04T19:59:49.156Z,99895.69
2022-08-04T20:04:59.247Z,99904.00
2022-08-04T20:10:04.615Z,99909.16
2022-08-04T20:15:08.141Z,99909.66
2022-08-04T20:20:16.591Z,99911.19
2022-08-04T20:25:35.995Z,99902.19
2022-08-04T20:30:40.506Z,99902.19
2022-08-04T20:36:03.196Z,99910.34
2022-08-04T20:41:08.170Z,99904.75
2022-08-04T20:46:18.538Z,99902.88
2022-08-04T20:51:33.446Z,99903.22
2022-08-04T20:56:36.708Z,99900.50
2022-08-04T21:01:39.540Z,99899.47
2022-08-04T21:06:50.101Z,99904.91
2022-08-04T21:11:53.042Z,99896.28
2022-08-04T21:16:56.506Z,99896.94
2022-08-04T21:22:01.132Z,99898.63
2022-08-04T21:27:06.252Z,99892.16
2022-08-04T21:32:12.596Z,99888.97
2022-08-04T21:37:18.068Z,99888.47
2022-08-04T21:42:27.811Z,99889.63
2022-08-04T21:47:45.763Z,99889.78
2022-08-04T21:52:53.321Z,99887.25
2022-08-04T21:57:58.638Z,99884.16
2022-08-04T22:03:03.142Z,99889.59
2022-08-04T22:08:07.666Z,99891.09
2022-08-04T22:13:22.968Z,99895.88
2022-08-04T22:18:27.925Z,99891.47
2022-08-04T22:23:45.093Z,99894.84
2022-08-04T22:28:49.282Z,99886.69
2022-08-04T22:33:54.523Z,99883.97
2022-08-04T22:39:06.829Z,99881.91
2022-08-04T22:44:15.372Z,99881.44
2022-08-04T22:49:18.858Z,99881.56
2022-08-04T22:54:29.826Z,99886.50
2022-08-04T22:59:34.578Z,99887.00
2022-08-04T23:04:37.568Z,99884.47
2022-08-04T23:09:50.079Z,99875.13
2022-08-04T23:14:54.739Z,99877.53
2022-08-04T23:19:59.101Z,99877.53
2022-08-04T23:25:04.006Z,99875.34
2022-08-04T23:30:07.563Z,99911.47
2022-08-04T23:35:10.810Z,99897.94
2022-08-04T23:40:33.782Z,99908.88
2022-08-04T23:46:05.028Z,99905.50
2022-08-04T23:51:03.988Z,99913.16
2022-08-04T23:56:19.670Z,99906.41
